x

Monterey - 27nm Wnw Of Monterey, Ca (46042) Wave Buoy

6:50pm - Mon 28th Jul 2014 All times are PDT. -7 hours from GMT.

  • Sig Wave height 4.6ft
  • Swell Direction
  • Peak Period 8s
  • Average Period 7s
  • Wind
    7mph, 9mph gusts
  • Sea Temp 65°f
  • Air Temp 61°f
  • Sea Pressure 1017.7mb
  • Monterey - 27nm Wnw Of Monterey, Ca
  • Monterey - 27nm Wnw Of Monterey, Ca

More Historic Weather Station data

Upgrade to MSW Pro to gain access to the past 30 days of data for over 8000 Wavebouys and Weather Stations around the globe.

Join Pro

Comparision Forecast

View Surf forecast
   
Mon 07/28 6:50pm 4.5ft 8s 7s 7 9 mph 1017.7mb 65f 61f
5:50pm 4ft 8s 7s 7
mph
1018mb 65f 62f
4:50pm 4.5ft 9s 7s 7 9 mph 1018.3mb 65f 62f
3:50pm 4.5ft 8s 7s 7
mph
1019mb 65f 62f
2:50pm 4.5ft 8s 7s 7 9 mph 1019.3mb 65f 61f
1:50pm 3.5ft 14s 7s 4 7 mph 1019.3mb 64f 61f
12:50pm 3.5ft 8s 7s 2 4 mph 1019.4mb 64f 60f
11:50am 4ft 14s 7s  -  2 mph 1019.3mb 64f 60f
10:50am 3.5ft 15s 7s 2
mph
1019mb 63f 59f
9:50am 4.5ft 15s 7s 2 4 mph 1018.8mb 63f 59f
8:50am 4ft 14s 7s 2 4 mph 1018.5mb 63f 59f
7:50am 4ft 8s 7s 2 4 mph 1018mb 63f 58f
6:50am 4ft 15s 7s 2 4 mph 1017.4mb 63f 59f
5:50am 3.5ft 8s 6s  -  2 mph 1016.9mb 63f 59f
4:50am 4ft 15s 7s 2 4 mph 1016.7mb 63f 58f
3:50am 4ft 8s 7s 2
mph
1016.5mb 63f 58f
2:50am 4ft 8s 7s 4 7 mph 1016.5mb 63f 59f
1:50am 4ft 8s 7s 4 7 mph 1016.5mb 64f 59f
12:50am 4.5ft 8s 7s 2 4 mph 1016.9mb 64f 60f
Sun 07/27 11:50pm 4.5ft 8s 7s 2
mph
1016.9mb 64f 60f
10:50pm 4.5ft 8s 7s 2 4 mph 1017mb 64f 60f
9:50pm 4.5ft 7s 7s 4 7 mph 1016.8mb 64f 60f
8:50pm 4.5ft 8s 7s 4 7 mph 1016.4mb 64f 60f
6:50pm 4.5ft 8s 7s 9 11 mph 1015.7mb 64f 60f
5:50pm 4.5ft 8s 7s 4 7 mph 1015.8mb 64f 60f
4:50pm 4.5ft 8s 7s 7 9 mph 1015.9mb 64f 61f
3:50pm 4.5ft 8s 7s 9 11 mph 1015.8mb 64f 61f
2:50pm 4.5ft 8s 7s 7 9 mph 1016.3mb 64f 60f
1:50pm 5ft 8s 7s 9
mph
1016.7mb 64f 60f
12:50pm 4.5ft 8s 7s 9 13 mph 1016.2mb 64f 60f
11:50am 5ft 8s 7s 4 7 mph 1016.8mb 64f 60f
10:50am 4.5ft 8s 6s 7 9 mph 1016.7mb 64f 60f
9:50am 4.5ft 8s 6s 7 9 mph 1016.6mb 63f 60f
8:50am 4.5ft 8s 6s 4 9 mph 1016.5mb 63f 60f
7:50am 4.5ft 8s 6s 7 9 mph 1015.8mb 63f 61f
6:50am 4.5ft 8s 6s 4 9 mph 1015.8mb 63f 61f
5:50am 5ft 8s 6s 4 9 mph 1015.5mb 63f 61f
4:50am 4.5ft 8s 6s 4 9 mph 1015.2mb 63f 61f
3:50am 4.5ft 7s 6s 7 9 mph 1015.2mb 63f 61f
2:50am 4.5ft 8s 6s 4 9 mph 1015.2mb 64f 61f
1:50am 5ft 8s 7s 7 9 mph 1015.3mb 64f 60f
12:50am 4.5ft 8s 7s 4 9 mph 1015.3mb 64f 60f
Sat 07/26 11:50pm 4.5ft 8s 7s 7 9 mph 1015.4mb 64f 60f
10:50pm 4.5ft 8s 7s 7 9 mph 1015.4mb 64f 60f
9:50pm 4ft 8s 6s 7 9 mph 1015.4mb 64f 60f
8:50pm 4.5ft 8s 6s 7 9 mph 1015mb 64f 59f
7:50pm 4.5ft 8s 6s 7 9 mph 1014.7mb 64f 59f
6:50pm 5ft 8s 6s 11
mph
1014.5mb 64f 60f
5:50pm 5ft 8s 7s 9 13 mph 1014.8mb 65f 60f
4:50pm 5ft 8s 6s 9 11 mph 1015.3mb 65f 60f
3:50pm 5ft 9s 6s 11 13 mph 1015.5mb 65f 60f
2:50pm 5ft 9s 7s 7 9 mph 1016mb 65f 60f
1:50pm 5.5ft 9s 7s 9 11 mph 1015.6mb 64f 60f
12:50pm 5.5ft 8s 7s 7 9 mph 1015.9mb 64f 60f
11:50am 6ft 9s 7s 7 11 mph 1015.6mb 64f 60f
10:50am 7ft 9s 7s 4 9 mph 1015.4mb 64f 61f
9:50am 6ft 9s 7s 4 7 mph 1015.1mb 63f 60f
8:50am 6ft 10s 7s 2 4 mph 1015.1mb 63f 60f
7:50am 7ft 9s 7s 7 9 mph 1014.5mb 63f 61f
6:50am 6.5ft 9s 7s 4 7 mph 1014mb 63f 61f
5:50am 6.5ft 9s 7s 4
mph
1013.5mb 63f 61f
4:50am 6.5ft 9s 7s 4
mph
1013.1mb 63f 61f
3:50am 6.5ft 9s 7s 7
mph
1013.1mb 63f 61f
2:50am 6.5ft 8s 7s 4
mph
1013.3mb 63f 62f
1:50am 6.5ft 9s 7s 4 7 mph 1013.3mb 63f 62f
12:50am 6ft 9s 7s 7 9 mph 1013.3mb 63f 62f
Fri 07/25 11:50pm 6ft 10s 7s 9 11 mph 1013.2mb 63f 62f
10:50pm 5.5ft 10s 6s 9 13 mph 1013.3mb 64f 62f
9:50pm 6ft 9s 7s 11 13 mph 1013.3mb 64f 62f
8:50pm 6ft 9s 7s 11 13 mph 1012.8mb 64f 62f
7:50pm 6ft 9s 7s 11 13 mph 1012.6mb 64f 62f
6:50pm 5.5ft 10s 7s 11
mph
1012.5mb 64f 62f
5:50pm 7ft 9s 7s 11 13 mph 1012.4mb 64f 62f
4:50pm 6.5ft 9s 7s 11 13 mph 1012.6mb 64f 62f
3:50pm 8ft 9s 7s 11 13 mph 1012.8mb 64f 62f
2:50pm 7ft 9s 7s 11 13 mph 1013mb 64f 62f
1:50pm 8ft 9s 7s 11 13 mph 1013mb 64f 61f
12:50pm 7ft 9s 7s 11 13 mph 1012.9mb 63f 61f
10:50am 7.5ft 9s 7s 9 11 mph 1012.8mb 63f 60f
9:50am 7ft 9s 7s 9 11 mph 1012.8mb 62f 60f
8:50am 7ft 9s 7s 11 13 mph 1012.5mb 62f 60f
7:50am 7.5ft 9s 7s 11 16 mph 1012.2mb 62f 60f
6:50am 7ft 9s 7s 16 18 mph 1011.6mb 62f 60f
5:50am 7ft 8s 7s 18 20 mph 1011.4mb 62f 60f
4:50am 7ft 9s 7s 18 20 mph 1011mb 62f 61f
3:50am 7ft 9s 7s 18 20 mph 1010.9mb 62f 61f